createdAt,value
2023-03-11T00:01:49.782Z,1.71
2023-03-11T00:04:17.752Z,1.78
2023-03-11T00:06:45.554Z,1.74
2023-03-11T00:09:13.436Z,1.73
2023-03-11T00:11:41.277Z,1.69
2023-03-11T00:14:09.143Z,1.68
2023-03-11T00:16:37.073Z,1.63
2023-03-11T00:19:06.371Z,1.66
2023-03-11T00:21:34.996Z,1.66
2023-03-11T00:24:03.714Z,1.71
2023-03-11T00:26:31.747Z,1.72
2023-03-11T00:28:59.575Z,1.67
2023-03-11T00:31:27.575Z,1.75
2023-03-11T00:33:57.188Z,1.73
2023-03-11T00:36:31.437Z,1.81
2023-03-11T00:39:00.057Z,1.76
2023-03-11T00:41:27.936Z,1.77
2023-03-11T00:43:55.992Z,1.69
2023-03-11T00:46:24.790Z,1.68
2023-03-11T00:48:53.078Z,1.64
2023-03-11T00:51:21.205Z,1.77
2023-03-11T00:53:50.496Z,1.76
2023-03-11T00:56:18.459Z,1.76
2023-03-11T00:58:46.765Z,1.74
2023-03-11T01:01:17.229Z,1.66
2023-03-11T01:04:10.637Z,1.65
2023-03-11T01:06:45.562Z,1.47
2023-03-11T01:09:15.160Z,1.59
2023-03-11T01:11:44.923Z,1.53
2023-03-11T01:14:12.805Z,1.57
2023-03-11T01:16:40.794Z,1.64
2023-03-11T01:19:10.239Z,1.44
2023-03-11T01:21:38.134Z,1.51
2023-03-11T01:24:08.138Z,1.57
2023-03-11T01:26:37.384Z,1.43
2023-03-11T01:29:05.356Z,1.46
2023-03-11T01:31:33.190Z,1.38
2023-03-11T01:34:01.022Z,1.48
2023-03-11T01:36:28.923Z,1.39
2023-03-11T01:38:56.789Z,1.47
2023-03-11T01:41:24.680Z,1.41
2023-03-11T01:43:55.690Z,1.35
2023-03-11T01:46:34.592Z,1.37
2023-03-11T01:49:04.103Z,1.34
2023-03-11T01:51:38.408Z,1.43
2023-03-11T01:54:11.609Z,1.33
2023-03-11T01:56:40.913Z,1.30
2023-03-11T01:59:14.446Z,1.22
2023-03-11T02:01:49.969Z,1.36
2023-03-11T02:04:18.462Z,1.32
2023-03-11T02:06:46.568Z,1.13
2023-03-11T02:09:14.760Z,1.20
2023-03-11T02:11:42.844Z,1.25
2023-03-11T02:14:12.168Z,1.11
2023-03-11T02:16:40.215Z,1.12
2023-03-11T02:19:19.488Z,1.12
2023-03-11T02:21:47.813Z,1.11
2023-03-11T02:24:23.214Z,1.07
2023-03-11T02:26:56.266Z,1.10
2023-03-11T02:29:27.699Z,1.01
2023-03-11T02:31:56.844Z,0.99
2023-03-11T02:34:27.173Z,1.06
2023-03-11T02:36:55.054Z,1.06
2023-03-11T02:39:31.719Z,1.01
2023-03-11T02:42:05.810Z,1.02
2023-03-11T02:44:34.599Z,0.95
2023-03-11T02:47:02.766Z,0.79
2023-03-11T02:49:32.371Z,0.89
2023-03-11T02:52:01.289Z,0.74
2023-03-11T02:54:31.418Z,0.77
2023-03-11T02:56:59.326Z,0.80
2023-03-11T02:59:30.212Z,0.60
2023-03-11T03:01:59.798Z,0.61
2023-03-11T03:04:28.200Z,0.64
2023-03-11T03:06:57.672Z,0.47
2023-03-11T03:09:25.564Z,0.48
2023-03-11T03:11:53.487Z,0.45
2023-03-11T03:14:21.549Z,0.51
2023-03-11T03:16:51.541Z,0.27
2023-03-11T03:19:20.006Z,0.37
2023-03-11T03:21:48.013Z,0.37
2023-03-11T03:24:16.305Z,0.38
2023-03-11T03:26:44.146Z,0.31
2023-03-11T03:29:12.025Z,0.39
2023-03-11T03:31:40.344Z,0.34
2023-03-11T03:34:10.377Z,0.32
2023-03-11T03:36:38.637Z,0.30
2023-03-11T03:39:07.158Z,0.28
2023-03-11T03:41:38.160Z,0.18
2023-03-11T03:44:07.151Z,0.18
2023-03-11T03:46:38.387Z,0.18
2023-03-11T03:49:07.680Z,0.20
2023-03-11T03:51:37.098Z,0.11
2023-03-11T03:54:10.596Z,0.09
2023-03-11T03:56:38.927Z,0.20
2023-03-11T03:59:07.241Z,0.18
2023-03-11T04:01:40.354Z,0.18
2023-03-11T04:04:08.326Z,0.10
2023-03-11T04:06:37.692Z,0.12
2023-03-11T04:09:08.036Z,0.01
2023-03-11T04:11:36.406Z,0.04
2023-03-11T04:14:06.121Z,0.05
2023-03-11T04:16:37.900Z,-0.03
2023-03-11T04:19:10.550Z,0.04
2023-03-11T04:21:39.966Z,0.04
2023-03-11T04:24:08.234Z,0.04
2023-03-11T04:26:37.700Z,0.04
2023-03-11T04:29:09.184Z,0.04
2023-03-11T04:31:42.460Z,0.03
2023-03-11T04:34:10.746Z,0.03
2023-03-11T04:36:42.475Z,-0.02
2023-03-11T04:39:13.256Z,-0.01
2023-03-11T04:41:44.052Z,-0.05
2023-03-11T04:44:16.846Z,-0.08
2023-03-11T04:46:45.746Z,-0.19
2023-03-11T04:49:13.553Z,-0.15
2023-03-11T04:51:43.269Z,-0.20
2023-03-11T04:54:12.207Z,-0.16
2023-03-11T04:56:40.228Z,-0.12
2023-03-11T04:59:08.433Z,-0.19
2023-03-11T05:01:38.596Z,-0.16
2023-03-11T05:04:09.171Z,-0.13
2023-03-11T05:06:37.400Z,-0.19
2023-03-11T05:09:07.857Z,-0.19
2023-03-11T05:11:38.659Z,-0.27
2023-03-11T05:14:06.732Z,-0.32
2023-03-11T05:16:34.805Z,-0.28
2023-03-11T05:19:24.843Z,-0.35
2023-03-11T05:21:53.599Z,-0.26
2023-03-11T05:24:22.870Z,-0.24
2023-03-11T05:26:52.300Z,-0.30
2023-03-11T05:29:20.844Z,-0.28
2023-03-11T05:31:49.756Z,-0.30
2023-03-11T05:34:18.716Z,-0.31
2023-03-11T05:36:47.027Z,-0.31
2023-03-11T05:39:15.269Z,-0.37
2023-03-11T05:41:44.778Z,-0.30
2023-03-11T05:44:12.975Z,-0.30
2023-03-11T05:46:41.385Z,-0.39
2023-03-11T05:49:09.839Z,-0.36
2023-03-11T05:51:38.136Z,-0.40
2023-03-11T05:54:11.473Z,-0.41
2023-03-11T05:56:41.429Z,-0.41
2023-03-11T05:59:12.561Z,-0.43
2023-03-11T06:01:43.184Z,-0.45
2023-03-11T06:04:12.610Z,-0.40
2023-03-11T06:06:42.197Z,-0.39
2023-03-11T06:09:13.902Z,-0.40
2023-03-11T06:11:42.984Z,-0.41
2023-03-11T06:14:15.636Z,-0.39
2023-03-11T06:16:45.634Z,-0.39
2023-03-11T06:19:14.001Z,-0.35
2023-03-11T06:21:46.891Z,-0.35
2023-03-11T06:24:15.236Z,-0.39
2023-03-11T06:26:44.966Z,-0.35
2023-03-11T06:29:16.750Z,-0.32
2023-03-11T06:31:45.820Z,-0.30
2023-03-11T06:34:14.814Z,-0.27
2023-03-11T06:36:43.770Z,-0.23
2023-03-11T06:39:15.139Z,-0.19
2023-03-11T06:41:44.935Z,-0.18
2023-03-11T06:44:14.054Z,-0.17
2023-03-11T06:46:44.445Z,-0.17
2023-03-11T06:49:13.138Z,-0.09
2023-03-11T06:51:42.682Z,-0.04
2023-03-11T06:54:12.232Z,0.04
2023-03-11T06:56:40.595Z,0.05
2023-03-11T06:59:10.335Z,0.08
2023-03-11T07:01:38.444Z,0.07
2023-03-11T07:04:11.222Z,0.09
2023-03-11T07:06:42.601Z,0.18
2023-03-11T07:09:15.786Z,0.18
2023-03-11T07:11:46.563Z,0.19
2023-03-11T07:14:20.557Z,0.11
2023-03-11T07:16:52.998Z,0.15
2023-03-11T07:19:40.992Z,0.22
2023-03-11T07:22:08.842Z,0.25
2023-03-11T07:24:36.664Z,0.36
2023-03-11T07:27:04.725Z,0.44
2023-03-11T07:29:32.539Z,0.45
2023-03-11T07:32:00.416Z,0.44
2023-03-11T07:34:28.239Z,0.60
2023-03-11T07:36:57.475Z,0.50
2023-03-11T07:39:25.312Z,0.61
2023-03-11T07:41:53.275Z,0.64
2023-03-11T07:44:21.139Z,0.54
2023-03-11T07:46:49.012Z,0.62
2023-03-11T07:49:16.846Z,0.47
2023-03-11T07:51:44.853Z,0.49
2023-03-11T07:54:14.644Z,0.70
2023-03-11T07:56:42.513Z,0.80
2023-03-11T07:59:10.908Z,0.87
2023-03-11T08:01:41.077Z,0.88
2023-03-11T08:04:14.336Z,0.95
2023-03-11T08:06:44.162Z,0.95
2023-03-11T08:09:12.777Z,1.08
2023-03-11T08:11:42.372Z,0.98
2023-03-11T08:14:10.208Z,0.82
2023-03-11T08:16:40.509Z,0.67
2023-03-11T08:19:08.361Z,0.99
2023-03-11T08:21:36.148Z,1.01
2023-03-11T08:24:06.577Z,1.08
2023-03-11T08:26:34.803Z,1.19
2023-03-11T08:29:04.220Z,1.18
2023-03-11T08:31:35.009Z,1.15
2023-03-11T08:34:04.941Z,1.29
2023-03-11T08:36:33.324Z,1.23
2023-03-11T08:39:01.495Z,1.26
2023-03-11T08:41:29.430Z,1.27
2023-03-11T08:43:57.339Z,1.24
2023-03-11T08:46:29.020Z,1.42
2023-03-11T08:49:00.882Z,1.44
2023-03-11T08:51:30.218Z,1.42
2023-03-11T08:53:58.463Z,1.38
2023-03-11T08:56:27.124Z,1.47
2023-03-11T08:58:55.568Z,1.52
2023-03-11T09:01:24.115Z,1.45
2023-03-11T09:03:53.492Z,1.56
2023-03-11T09:06:21.364Z,1.52
2023-03-11T09:08:49.861Z,1.61
2023-03-11T09:11:18.271Z,1.66
2023-03-11T09:13:46.277Z,1.69
2023-03-11T09:16:16.343Z,1.64
2023-03-11T09:18:44.296Z,1.61
2023-03-11T09:21:13.836Z,1.68
2023-03-11T09:23:44.172Z,1.76
2023-03-11T09:26:12.728Z,1.88
2023-03-11T09:28:40.942Z,1.94
2023-03-11T09:31:08.915Z,1.84
2023-03-11T09:33:38.698Z,1.89
2023-03-11T09:36:08.099Z,1.89
2023-03-11T09:38:37.261Z,1.83
2023-03-11T09:41:10.986Z,2.17
2023-03-11T09:43:51.715Z,2.26
2023-03-11T09:46:31.454Z,2.49
2023-03-11T09:49:06.732Z,2.57
2023-03-11T09:51:39.077Z,2.65
2023-03-11T09:54:12.724Z,2.53
2023-03-11T09:56:44.446Z,2.54
2023-03-11T09:59:17.996Z,2.56
2023-03-11T10:01:48.914Z,2.53
2023-03-11T10:04:21.792Z,2.41
2023-03-11T10:06:50.455Z,2.49
2023-03-11T10:09:39.390Z,2.53
2023-03-11T10:12:21.275Z,2.56
2023-03-11T10:14:58.883Z,2.58
2023-03-11T10:17:44.188Z,2.63
2023-03-11T10:20:20.949Z,2.67
2023-03-11T10:22:56.553Z,2.81
2023-03-11T10:25:30.026Z,3.07
2023-03-11T10:28:05.679Z,3.25
2023-03-11T10:30:37.377Z,3.44
2023-03-11T10:33:13.127Z,3.42
2023-03-11T10:35:44.641Z,3.29
2023-03-11T10:38:16.625Z,3.43
2023-03-11T10:40:48.400Z,3.46
2023-03-11T10:43:20.711Z,3.21
2023-03-11T10:45:51.645Z,3.23
2023-03-11T10:48:21.510Z,3.15
2023-03-11T10:50:58.648Z,3.17
2023-03-11T10:53:26.571Z,3.13
2023-03-11T10:55:57.715Z,3.12
2023-03-11T10:58:28.168Z,3.03
2023-03-11T11:01:04.235Z,3.20
2023-03-11T11:03:32.470Z,3.05
2023-03-11T11:06:03.597Z,3.16
2023-03-11T11:08:32.411Z,3.14
2023-03-11T11:11:03.194Z,3.01
2023-03-11T11:13:34.482Z,3.06
2023-03-11T11:16:04.996Z,3.02
2023-03-11T11:18:35.678Z,3.02
2023-03-11T11:21:06.917Z,2.97
2023-03-11T11:23:39.935Z,2.88
2023-03-11T11:26:17.953Z,2.91
2023-03-11T11:28:46.260Z,3.06
2023-03-11T11:31:24.466Z,3.07
2023-03-11T11:33:54.572Z,3.00
2023-03-11T11:36:26.552Z,3.08
2023-03-11T11:38:56.017Z,3.15
2023-03-11T11:41:28.189Z,3.03
2023-03-11T11:43:59.863Z,2.95
2023-03-11T11:46:32.049Z,3.03
2023-03-11T11:49:07.199Z,3.02
2023-03-11T11:51:40.321Z,2.96
2023-03-11T11:54:17.565Z,3.04
2023-03-11T11:56:47.076Z,3.14
2023-03-11T11:59:19.816Z,3.30
2023-03-11T12:01:59.418Z,3.31
2023-03-11T12:04:47.875Z,3.31
2023-03-11T12:07:41.107Z,3.39
2023-03-11T12:10:23.753Z,3.44
2023-03-11T12:13:31.418Z,3.48
2023-03-11T12:16:05.914Z,3.61
2023-03-11T12:18:39.238Z,3.56
2023-03-11T12:21:23.673Z,3.59
2023-03-11T12:24:05.228Z,3.59
2023-03-11T12:26:38.858Z,3.56
2023-03-11T12:29:16.182Z,3.65
2023-03-11T12:31:45.570Z,3.66
2023-03-11T12:34:17.607Z,3.73
2023-03-11T12:36:48.217Z,3.78
2023-03-11T12:39:24.901Z,3.87
2023-03-11T12:42:17.907Z,3.81
2023-03-11T12:44:48.127Z,3.70
2023-03-11T12:47:25.774Z,3.65
2023-03-11T12:49:55.241Z,3.69
2023-03-11T12:52:34.402Z,3.83
2023-03-11T12:55:31.756Z,3.88
2023-03-11T12:58:29.726Z,3.99
2023-03-11T13:01:19.618Z,4.01
2023-03-11T13:04:01.472Z,4.05
2023-03-11T13:07:01.085Z,3.94
2023-03-11T13:09:31.432Z,3.90
2023-03-11T13:11:59.823Z,3.94
2023-03-11T13:14:32.870Z,3.97
2023-03-11T13:17:27.443Z,4.10
2023-03-11T13:19:56.608Z,4.05
2023-03-11T13:22:58.470Z,4.09
2023-03-11T13:25:33.635Z,4.25
2023-03-11T13:28:37.011Z,4.21
2023-03-11T13:31:17.997Z,4.13
2023-03-11T13:33:55.513Z,4.17
2023-03-11T13:36:40.486Z,4.28
2023-03-11T13:39:40.716Z,4.38
2023-03-11T13:42:18.626Z,4.52
2023-03-11T13:44:47.741Z,4.70
2023-03-11T13:47:17.371Z,4.77
2023-03-11T13:49:53.625Z,4.78
2023-03-11T13:52:27.370Z,4.77
2023-03-11T13:55:02.330Z,4.84
2023-03-11T13:57:33.496Z,4.81
2023-03-11T14:00:17.698Z,4.82
2023-03-11T14:02:51.026Z,4.74
2023-03-11T14:05:24.297Z,4.61
2023-03-11T14:07:52.211Z,4.65
2023-03-11T14:10:23.520Z,4.67
2023-03-11T14:12:51.868Z,4.65
2023-03-11T14:15:23.099Z,4.62
2023-03-11T14:17:52.769Z,4.62
2023-03-11T14:20:25.474Z,4.50
2023-03-11T14:22:55.234Z,4.54
2023-03-11T14:25:26.541Z,4.53
2023-03-11T14:27:57.901Z,4.59
2023-03-11T14:30:29.409Z,4.66
2023-03-11T14:33:00.921Z,4.70
2023-03-11T14:35:31.575Z,4.71
2023-03-11T14:37:59.482Z,4.74
2023-03-11T14:40:30.638Z,4.70
2023-03-11T14:43:01.308Z,4.82
2023-03-11T14:45:31.837Z,4.85
2023-03-11T14:48:05.676Z,4.80
2023-03-11T14:50:36.224Z,4.81
2023-03-11T14:53:08.873Z,4.73
2023-03-11T14:55:40.449Z,4.86
2023-03-11T14:58:14.915Z,4.90
2023-03-11T15:00:47.569Z,4.83
2023-03-11T15:03:24.305Z,4.76
2023-03-11T15:05:56.678Z,4.80
2023-03-11T15:08:29.829Z,4.79
2023-03-11T15:11:19.959Z,4.86
2023-03-11T15:13:51.126Z,4.85
2023-03-11T15:16:25.590Z,4.90
2023-03-11T15:18:55.630Z,4.87
2023-03-11T15:21:25.697Z,4.94
2023-03-11T15:23:59.924Z,4.86
2023-03-11T15:26:30.565Z,4.88
2023-03-11T15:29:00.931Z,4.85
2023-03-11T15:31:32.439Z,4.84
2023-03-11T15:34:25.171Z,4.87
2023-03-11T15:37:03.930Z,4.67
2023-03-11T15:39:48.021Z,4.69
2023-03-11T15:42:20.855Z,4.72
2023-03-11T15:45:14.496Z,4.58
2023-03-11T15:47:43.140Z,4.63
2023-03-11T15:50:25.263Z,4.63
2023-03-11T15:52:56.832Z,4.50
2023-03-11T15:55:25.866Z,4.56
2023-03-11T15:57:59.526Z,4.49
2023-03-11T16:00:27.324Z,4.50
2023-03-11T16:02:56.187Z,4.44
2023-03-11T16:05:26.395Z,4.37
2023-03-11T16:07:55.912Z,4.27
2023-03-11T16:10:25.597Z,4.36
2023-03-11T16:12:53.870Z,4.28
2023-03-11T16:15:26.514Z,4.26
2023-03-11T16:17:55.248Z,4.17
2023-03-11T16:20:25.142Z,4.11
2023-03-11T16:22:57.164Z,4.09
2023-03-11T16:25:27.930Z,4.11
2023-03-11T16:27:57.640Z,4.10
2023-03-11T16:30:26.960Z,4.12
2023-03-11T16:32:55.136Z,4.10
2023-03-11T16:35:23.017Z,4.07
2023-03-11T16:37:51.720Z,4.05
2023-03-11T16:40:25.184Z,4.06
2023-03-11T16:42:56.804Z,3.94
2023-03-11T16:45:24.983Z,3.94
2023-03-11T16:47:52.865Z,3.95
2023-03-11T16:50:24.232Z,3.94
2023-03-11T16:52:52.204Z,3.94
2023-03-11T16:55:21.542Z,3.79
2023-03-11T16:57:49.502Z,3.84
2023-03-11T17:00:18.125Z,3.76
2023-03-11T17:02:46.210Z,3.76
2023-03-11T17:05:14.300Z,3.78
2023-03-11T17:07:42.355Z,3.78
2023-03-11T17:10:12.133Z,3.69
2023-03-11T17:12:41.312Z,3.74
2023-03-11T17:15:10.146Z,3.71
2023-03-11T17:17:37.962Z,3.56
2023-03-11T17:20:07.412Z,3.55
2023-03-11T17:22:35.392Z,3.59
2023-03-11T17:25:03.443Z,3.55
2023-03-11T17:27:32.538Z,3.49
2023-03-11T17:30:03.034Z,3.45
2023-03-11T17:32:31.330Z,3.40
2023-03-11T17:34:59.259Z,3.35
2023-03-11T17:37:27.126Z,3.32
2023-03-11T17:39:55.000Z,3.29
2023-03-11T17:42:22.918Z,3.22
2023-03-11T17:44:52.192Z,3.22
2023-03-11T17:47:25.799Z,3.19
2023-03-11T17:49:54.089Z,3.13
2023-03-11T17:52:22.131Z,3.13
2023-03-11T17:54:50.068Z,3.09
2023-03-11T17:57:17.897Z,3.04
2023-03-11T17:59:46.169Z,3.04
2023-03-11T18:02:15.179Z,3.00
2023-03-11T18:04:46.047Z,2.97
2023-03-11T18:07:14.182Z,2.95
2023-03-11T18:09:42.034Z,2.90
2023-03-11T18:12:10.031Z,2.88
2023-03-11T18:14:38.016Z,2.86
2023-03-11T18:17:06.092Z,2.85
2023-03-11T18:19:34.462Z,2.82
2023-03-11T18:22:03.803Z,2.77
2023-03-11T18:24:33.073Z,2.75
2023-03-11T18:27:01.808Z,2.70
2023-03-11T18:29:29.660Z,2.66
2023-03-11T18:31:57.528Z,2.59
2023-03-11T18:34:25.424Z,2.51
2023-03-11T18:36:53.221Z,2.51
2023-03-11T18:39:22.527Z,2.46
2023-03-11T18:41:50.374Z,2.42
2023-03-11T18:44:18.250Z,2.28
2023-03-11T18:46:46.086Z,2.26
2023-03-11T18:49:14.866Z,2.21
2023-03-11T18:51:42.768Z,2.13
2023-03-11T18:54:11.529Z,2.15
2023-03-11T18:56:40.770Z,2.10
2023-03-11T18:59:10.561Z,2.05
2023-03-11T19:01:38.521Z,1.99
2023-03-11T19:04:07.337Z,1.99
2023-03-11T19:06:35.288Z,1.98
2023-03-11T19:09:03.917Z,1.93
2023-03-11T19:11:31.899Z,1.89
2023-03-11T19:14:01.115Z,1.86
2023-03-11T19:16:28.999Z,1.81
2023-03-11T19:18:57.142Z,1.71
2023-03-11T19:21:25.868Z,1.70
2023-03-11T19:23:55.240Z,1.63
2023-03-11T19:26:33.789Z,1.58
2023-03-11T19:29:10.916Z,1.55
2023-03-11T19:31:38.830Z,1.56
2023-03-11T19:34:06.681Z,1.46
2023-03-11T19:36:34.802Z,1.42
2023-03-11T19:39:03.469Z,1.38
2023-03-11T19:41:31.352Z,1.37
2023-03-11T19:43:59.242Z,1.27
2023-03-11T19:46:29.758Z,1.22
2023-03-11T19:48:58.781Z,1.21
2023-03-11T19:51:32.775Z,1.13
2023-03-11T19:54:03.682Z,1.11
2023-03-11T19:56:31.562Z,1.10
2023-03-11T19:58:59.344Z,1.10
2023-03-11T20:01:31.363Z,1.04
2023-03-11T20:03:59.236Z,0.99
2023-03-11T20:06:27.271Z,0.99
2023-03-11T20:08:55.315Z,0.95
2023-03-11T20:11:23.157Z,0.95
2023-03-11T20:13:50.981Z,0.91
2023-03-11T20:16:20.272Z,0.90
2023-03-11T20:18:51.850Z,0.81
2023-03-11T20:21:20.171Z,0.75
2023-03-11T20:23:48.970Z,0.74
2023-03-11T20:26:19.022Z,0.66
2023-03-11T20:28:47.468Z,0.63
2023-03-11T20:31:17.318Z,0.61
2023-03-11T20:33:45.542Z,0.56
2023-03-11T20:36:17.100Z,0.55
2023-03-11T20:38:45.077Z,0.53
2023-03-11T20:41:13.029Z,0.50
2023-03-11T20:43:41.623Z,0.46
2023-03-11T20:46:10.757Z,0.43
2023-03-11T20:48:39.747Z,0.41
2023-03-11T20:51:11.487Z,0.40
2023-03-11T20:53:41.569Z,0.36
2023-03-11T20:56:11.982Z,0.38
2023-03-11T20:58:40.074Z,0.43
2023-03-11T21:01:18.879Z,0.33
2023-03-11T21:03:47.273Z,0.33
2023-03-11T21:06:17.299Z,0.25
2023-03-11T21:08:47.686Z,0.27
2023-03-11T21:11:17.192Z,0.26
2023-03-11T21:13:45.153Z,0.22
2023-03-11T21:16:13.660Z,0.16
2023-03-11T21:18:43.501Z,0.22
2023-03-11T21:21:12.615Z,0.15
2023-03-11T21:23:40.889Z,0.15
2023-03-11T21:26:11.133Z,0.14
2023-03-11T21:28:40.146Z,0.06
2023-03-11T21:31:10.922Z,0.05
2023-03-11T21:33:39.824Z,0.02
2023-03-11T21:36:10.061Z,0.04
2023-03-11T21:38:39.845Z,0.01
2023-03-11T21:41:11.058Z,-0.07
2023-03-11T21:43:39.823Z,-0.09
2023-03-11T21:46:09.121Z,-0.10
2023-03-11T21:48:37.053Z,-0.15
2023-03-11T21:51:05.920Z,-0.14
2023-03-11T21:53:34.091Z,-0.15
2023-03-11T21:56:03.721Z,-0.12
2023-03-11T21:58:33.028Z,-0.10
2023-03-11T22:01:01.207Z,-0.12
2023-03-11T22:03:30.689Z,-0.11
2023-03-11T22:05:59.497Z,-0.21
2023-03-11T22:08:29.132Z,-0.22
2023-03-11T22:10:57.355Z,-0.28
2023-03-11T22:13:25.877Z,-0.27
2023-03-11T22:15:55.150Z,-0.28
2023-03-11T22:18:23.038Z,-0.28
2023-03-11T22:20:50.877Z,-0.26
2023-03-11T22:23:19.028Z,-0.29
2023-03-11T22:25:46.885Z,-0.33
2023-03-11T22:28:14.850Z,-0.38
2023-03-11T22:30:42.957Z,-0.42
2023-03-11T22:33:12.149Z,-0.47
2023-03-11T22:35:40.010Z,-0.53
2023-03-11T22:38:07.918Z,-0.55
2023-03-11T22:40:36.100Z,-0.56
2023-03-11T22:43:03.974Z,-0.55
2023-03-11T22:45:31.779Z,-0.58
2023-03-11T22:47:59.638Z,-0.58
2023-03-11T22:50:29.223Z,-0.63
2023-03-11T22:52:57.107Z,-0.66
2023-03-11T22:55:25.192Z,-0.67
2023-03-11T22:57:53.072Z,-0.65
2023-03-11T23:00:23.021Z,-0.68
2023-03-11T23:02:55.664Z,-0.70
2023-03-11T23:05:24.875Z,-0.70
2023-03-11T23:07:54.807Z,-0.72
2023-03-11T23:10:22.913Z,-0.65
2023-03-11T23:12:50.855Z,-0.70
2023-03-11T23:15:20.115Z,-0.75
2023-03-11T23:17:48.086Z,-0.77
2023-03-11T23:20:16.588Z,-0.78
2023-03-11T23:22:44.873Z,-0.81
2023-03-11T23:25:16.476Z,-0.82
2023-03-11T23:27:46.440Z,-0.86
2023-03-11T23:30:15.870Z,-0.88
2023-03-11T23:32:43.888Z,-0.89
2023-03-11T23:35:12.879Z,-0.95
2023-03-11T23:37:41.261Z,-0.88
2023-03-11T23:40:10.598Z,-0.94
2023-03-11T23:42:39.850Z,-0.91
2023-03-11T23:45:09.188Z,-0.96
2023-03-11T23:47:37.033Z,-0.94
2023-03-11T23:50:05.855Z,-0.97
2023-03-11T23:52:33.969Z,-1.01
2023-03-11T23:55:02.702Z,-1.03
2023-03-11T23:57:30.514Z,-1.03
2023-03-11T23:59:59.959Z,-1.05
